Harmony, MN (55939)

7:25 AM CDT on September 27, 2016 (GMT -0500)
Preston | | Change Station

Elev 990 ft 43.68 °N, 92.08 °W | Updated 9 seconds ago

Clear
Clear
46.6 °F
Feels Like 47 °F
N
3.0
Wind Variable Wind from WSW
Gusts 10.0 mph

Today
High -- | Low -- °F
--% Chance of Precip.
Yesterday
High -- | Low -- °F
Precip. -- in
Pressure 29.86 in
Visibility 10.0 miles
Clouds Clear
Windchill 47 °F
Dew Point 39 °F
Humidity 76%
Rainfall 0.00 in
Snow Depth Not available.
7:01 AM 6:55 PM
Waning Crescent, 12% visible
METAR KFKA 271214Z AUTO 27010KT 10SM CLR 07/03 A2986 RMK AO2 T00650027
Pressure 29.86 in
Visibility 10.0 miles
Clouds Clear
Windchill 47 °F
Dew Point 39 °F
Humidity 76%
Rainfall 0.00 in
Snow Depth Not available.
7:01 AM 6:55 PM
Waning Crescent, 12% visible
METAR KFKA 271214Z AUTO 27010KT 10SM CLR 07/03 A2986 RMK AO2 T00650027

10-Day Weather Forecast

Almanac

Astronomy

Sep. 27, 2016 Rise Set
Actual Time
Civil Twilight
Nautical Twilight
Astronomical Twilight
Moon
Length of Visible Light
Length of Day
Tomorrow will be .
, % of the Moon is Illuminated

Today's Extremes

State Highs State Lows

Community

WunderPhotos

Upload Photos

1,942,069 photos uploaded!

WunderBlog® & News

Nearby

Air Quality

  Air Quality AQ Index Pollutant
Not available.

Snow Depth

Station Depth Elevation

Earthquake Activity

City Distance Mag. Time & Date
Minimum magnitude displayed is 2.5.

Coastal Water Temperatures

Place Temperature

Stations

Nearby Weather Stations

Station Location Temp. Windchill Dew Point Humidity Wind Precip. Elev Updated Type
                   

Watches & Warnings

There are currently no watches in effect.